Time;durP1;ratioP1;P1;durP2;ratioP2;P2;SDS_P1;SDS_P2;PMS_P1;PMS_P2;Temp;Humidity;BMP_temperature;BMP_pressure;BME280_temperature;BME280_humidity;BME280_pressure;Samples;Min_cycle;Max_cycle;Signal;HPM_P1;HPM_P2
2023/10/11 00:00:37;;;;;;;28.90;8.38;;;16.50;99.90;;;;;;5028133;28;20130;-77
2023/10/11 00:03:16;;;;;;;21.30;7.68;;;16.50;99.90;;;;;;5026094;28;20539;-76
2023/10/11 00:05:43;;;;;;;20.95;7.70;;;16.50;99.90;;;;;;5043794;28;20239;-77
2023/10/11 00:08:16;;;;;;;19.40;7.40;;;16.50;99.90;;;;;;5025691;28;20072;-77
2023/10/11 00:10:53;;;;;;;25.05;8.30;;;16.50;99.90;;;;;;5027538;28;20400;-76
2023/10/11 00:13:20;;;;;;;19.90;7.05;;;16.50;99.90;;;;;;5024083;28;20055;-76
2023/10/11 00:15:50;;;;;;;23.92;6.68;;;16.50;99.90;;;;;;5024483;28;20436;-76
2023/10/11 00:18:22;;;;;;;17.25;7.55;;;16.50;99.90;;;;;;5040848;28;20048;-77
2023/10/11 00:20:52;;;;;;;17.55;7.07;;;16.50;99.90;;;;;;5040995;28;20034;-77
2023/10/11 00:23:23;;;;;;;20.25;7.55;;;16.50;99.90;;;;;;5024445;28;20051;-76
2023/10/11 00:25:51;;;;;;;21.73;8.32;;;16.50;99.90;;;;;;5036845;28;20047;-76
2023/10/11 00:28:23;;;;;;;16.38;7.85;;;16.50;99.90;;;;;;5044666;28;20048;-76
2023/10/11 00:30:52;;;;;;;16.88;7.45;;;16.50;99.90;;;;;;5029623;28;20056;-76
2023/10/11 00:33:17;;;;;;;15.93;6.50;;;16.50;99.90;;;;;;5032909;28;20048;-77
2023/10/11 00:35:47;;;;;;;19.90;8.05;;;16.50;99.90;;;;;;5041643;28;20048;-76
2023/10/11 00:38:20;;;;;;;13.73;6.55;;;16.50;99.90;;;;;;5028571;28;20052;-76
2023/10/11 00:41:12;;;;;;;18.05;7.05;;;16.50;99.90;;;;;;5025041;28;20552;-77
2023/10/11 00:43:39;;;;;;;18.52;6.35;;;16.50;99.90;;;;;;5023611;28;20046;-76
2023/10/11 00:46:09;;;;;;;23.20;8.40;;;16.50;99.90;;;;;;5025288;28;20064;-76
2023/10/11 00:51:23;;;;;;;14.10;6.43;;;16.50;99.90;;;;;;5041964;28;20080;-77
2023/10/11 00:53:50;;;;;;;17.23;6.55;;;16.50;99.90;;;;;;5043336;28;20064;-76
2023/10/11 00:56:18;;;;;;;12.70;6.20;;;16.50;99.90;;;;;;5044156;28;20044;-76
2023/10/11 00:58:44;;;;;;;15.70;6.68;;;16.40;99.90;;;;;;5029860;28;20096;-77
2023/10/11 01:01:10;;;;;;;13.90;8.32;;;16.50;99.90;;;;;;5018900;28;20041;-77
2023/10/11 01:03:37;;;;;;;22.75;7.25;;;16.50;99.90;;;;;;5026619;28;20496;-77
2023/10/11 01:06:04;;;;;;;14.85;5.78;;;16.40;99.90;;;;;;5023336;28;20048;-77
2023/10/11 01:08:38;;;;;;;22.33;6.18;;;16.40;99.90;;;;;;5100573;23;20049;-76
2023/10/11 01:11:12;;;;;;;21.73;7.00;;;16.40;99.90;;;;;;4958658;28;20047;-76
2023/10/11 01:13:50;;;;;;;13.18;7.22;;;16.50;99.90;;;;;;4959991;28;20043;-76
2023/10/11 01:16:28;;;;;;;17.08;7.22;;;16.50;99.90;;;;;;4962525;28;20057;-76
2023/10/11 01:18:54;;;;;;;14.93;6.72;;;16.50;99.90;;;;;;4945553;28;20448;-76
2023/10/11 01:21:20;;;;;;;16.80;6.70;;;16.50;99.90;;;;;;4940062;28;20173;-76
2023/10/11 01:23:46;;;;;;;23.35;6.35;;;16.40;99.90;;;;;;4950677;28;20051;-77
2023/10/11 01:26:11;;;;;;;15.80;6.68;;;16.40;99.90;;;;;;4953372;28;20512;-76
2023/10/11 01:28:42;;;;;;;17.83;6.35;;;16.40;99.90;;;;;;4948528;28;20557;-76
2023/10/11 01:31:08;;;;;;;21.55;7.05;;;16.40;99.90;;;;;;4945777;28;20051;-76
2023/10/11 01:33:42;;;;;;;17.85;6.72;;;16.40;99.90;;;;;;4961521;28;20129;-76
2023/10/11 01:36:09;;;;;;;17.90;7.05;;;16.40;99.90;;;;;;4962149;28;20449;-76
2023/10/11 01:38:48;;;;;;;13.88;6.22;;;16.40;99.90;;;;;;4947942;28;20046;-76
2023/10/11 01:41:21;;;;;;;15.80;6.32;;;16.40;99.90;;;;;;4961994;28;20485;-77
2023/10/11 01:43:49;;;;;;;12.43;5.80;;;16.40;99.90;;;;;;4949499;28;20105;-76
2023/10/11 01:46:16;;;;;;;14.85;6.40;;;16.40;99.90;;;;;;4953519;28;20051;-76
2023/10/11 01:48:44;;;;;;;14.75;4.93;;;16.40;99.90;;;;;;4940172;28;20053;-77
2023/10/11 01:51:09;;;;;;;21.65;7.05;;;16.40;99.90;;;;;;4958115;28;20422;-77
2023/10/11 01:53:38;;;;;;;21.85;6.75;;;16.40;99.90;;;;;;4945208;28;20050;-76
2023/10/11 01:56:03;;;;;;;14.68;5.95;;;16.40;99.90;;;;;;4959555;28;20085;-76
2023/10/11 01:58:29;;;;;;;19.05;6.32;;;16.40;99.90;;;;;;4962845;28;20090;-76
2023/10/11 02:00:55;;;;;;;19.33;7.38;;;16.30;99.90;;;;;;4961102;28;20050;-76
2023/10/11 02:03:24;;;;;;;15.02;6.25;;;16.40;99.90;;;;;;4963297;28;20499;-76
2023/10/11 02:05:50;;;;;;;13.75;5.72;;;16.30;99.90;;;;;;4962414;28;20038;-77
2023/10/11 02:08:17;;;;;;;15.50;6.82;;;16.30;99.90;;;;;;4948126;28;20627;-76
2023/10/11 02:10:45;;;;;;;15.00;6.40;;;16.30;99.90;;;;;;4959329;28;20130;-76
2023/10/11 02:13:12;;;;;;;15.35;6.00;;;16.30;99.90;;;;;;4948710;28;20393;-76
2023/10/11 02:15:39;;;;;;;13.02;6.00;;;16.30;99.90;;;;;;4963208;28;20038;-76
2023/10/11 02:18:08;;;;;;;11.40;5.07;;;16.30;99.90;;;;;;4965047;28;20050;-76
2023/10/11 02:20:46;;;;;;;16.52;5.70;;;16.30;99.90;;;;;;4956101;28;20043;-76
2023/10/11 02:23:14;;;;;;;17.30;6.13;;;16.30;99.90;;;;;;4958934;28;20486;-76
2023/10/11 02:25:43;;;;;;;17.70;6.75;;;16.30;99.90;;;;;;4961058;28;20572;-77
2023/10/11 02:28:10;;;;;;;20.20;5.60;;;16.30;99.90;;;;;;4944066;28;20059;-77
2023/10/11 02:30:41;;;;;;;17.13;5.72;;;16.30;99.90;;;;;;4944297;28;20062;-76
2023/10/11 02:33:11;;;;;;;17.97;5.90;;;16.30;99.90;;;;;;4952268;28;20057;-76
2023/10/11 02:38:47;;;;;;;13.90;5.90;;;16.30;99.90;;;;;;4912681;28;20114;-76
2023/10/11 02:41:20;;;;;;;14.50;6.13;;;16.30;99.90;;;;;;4943597;28;20044;-76
2023/10/11 02:43:49;;;;;;;13.57;6.22;;;16.30;99.90;;;;;;4958390;28;20046;-76
2023/10/11 02:46:23;;;;;;;12.88;5.85;;;16.30;99.90;;;;;;4956411;28;20102;-77
2023/10/11 02:48:52;;;;;;;16.42;4.95;;;16.30;99.90;;;;;;4958127;28;20049;-76
2023/10/11 02:51:24;;;;;;;10.80;5.47;;;16.30;99.90;;;;;;4961743;28;20567;-76
2023/10/11 02:53:53;;;;;;;13.48;5.05;;;16.30;99.90;;;;;;4963920;28;20446;-76
2023/10/11 02:56:19;;;;;;;13.82;5.85;;;16.30;99.90;;;;;;4953534;28;20481;-76
2023/10/11 02:58:45;;;;;;;12.63;6.55;;;16.30;99.90;;;;;;4946778;28;20366;-77
2023/10/11 03:01:22;;;;;;;15.93;5.43;;;16.30;99.90;;;;;;4961898;28;20166;-77
2023/10/11 03:03:48;;;;;;;15.88;5.47;;;16.30;99.90;;;;;;4960552;28;20130;-77
2023/10/11 03:06:13;;;;;;;13.07;5.28;;;16.30;99.90;;;;;;4946083;28;20119;-76
2023/10/11 03:08:43;;;;;;;9.93;5.60;;;16.30;99.90;;;;;;4958257;28;20055;-77
2023/10/11 03:11:15;;;;;;;14.45;5.30;;;16.30;99.90;;;;;;4943024;28;20055;-77
2023/10/11 03:13:42;;;;;;;18.02;4.75;;;16.30;99.90;;;;;;4944553;28;20568;-76
2023/10/11 03:16:17;;;;;;;23.98;5.95;;;16.30;99.90;;;;;;4943575;28;20074;-76
2023/10/11 03:18:46;;;;;;;11.52;5.32;;;16.30;99.90;;;;;;4943671;28;20055;-76
2023/10/11 03:21:16;;;;;;;12.05;6.00;;;16.30;99.90;;;;;;4942161;28;20609;-76
2023/10/11 03:23:44;;;;;;;14.30;5.82;;;16.30;99.90;;;;;;4944964;28;20058;-76
2023/10/11 03:26:18;;;;;;;16.58;4.90;;;16.30;99.90;;;;;;4943180;28;20062;-77
2023/10/11 03:28:57;;;;;;;18.20;5.88;;;16.30;99.90;;;;;;4943486;28;20090;-76
2023/10/11 03:31:28;;;;;;;17.83;5.82;;;16.20;99.90;;;;;;4944741;28;20051;-76
2023/10/11 03:33:55;;;;;;;15.00;5.18;;;16.20;99.90;;;;;;4943210;28;20040;-76
2023/10/11 03:36:28;;;;;;;15.13;5.80;;;16.20;99.90;;;;;;4955159;28;20113;-76
2023/10/11 03:38:53;;;;;;;10.07;4.68;;;16.20;99.90;;;;;;4952340;28;20080;-76
2023/10/11 03:41:29;;;;;;;14.15;5.68;;;16.20;99.90;;;;;;4982322;28;20057;-76
2023/10/11 03:44:00;;;;;;;18.83;6.05;;;16.20;99.90;;;;;;4978259;28;20082;-76
2023/10/11 03:46:28;;;;;;;10.43;5.05;;;16.20;99.90;;;;;;4962786;28;20116;-76
2023/10/11 03:49:13;;;;;;;13.02;5.35;;;16.20;99.90;;;;;;4939120;28;20039;-76
2023/10/11 03:51:42;;;;;;;16.40;6.45;;;16.20;99.90;;;;;;4964145;28;20081;-77
2023/10/11 03:54:08;;;;;;;20.30;7.07;;;16.20;99.90;;;;;;4947219;28;20054;-76
2023/10/11 03:56:35;;;;;;;15.02;5.22;;;16.20;99.90;;;;;;4938041;28;20042;-76
2023/10/11 03:59:00;;;;;;;16.02;5.22;;;16.20;99.90;;;;;;4946881;28;20130;-76
2023/10/11 04:01:36;;;;;;;12.93;4.47;;;16.10;99.90;;;;;;4949726;28;20460;-76
2023/10/11 04:04:04;;;;;;;12.75;5.50;;;16.10;99.90;;;;;;4965570;28;20086;-76
2023/10/11 04:06:29;;;;;;;20.50;6.38;;;16.10;99.90;;;;;;4962217;28;20046;-76
2023/10/11 04:08:56;;;;;;;11.45;5.40;;;16.10;99.90;;;;;;4958987;28;20113;-77
2023/10/11 04:11:30;;;;;;;18.70;5.85;;;16.10;99.90;;;;;;4956757;28;20050;-76
2023/10/11 04:13:57;;;;;;;18.58;6.00;;;16.10;99.90;;;;;;4947365;28;20058;-76
2023/10/11 04:16:28;;;;;;;16.85;5.65;;;16.10;99.90;;;;;;4950729;28;20042;-76
2023/10/11 04:18:54;;;;;;;13.07;5.20;;;16.20;99.90;;;;;;4949236;28;20217;-76
2023/10/11 04:23:54;;;;;;;11.48;6.15;;;16.20;99.90;;;;;;4967009;28;20101;-76
2023/10/11 04:29:06;;;;;;;10.48;5.32;;;16.10;99.90;;;;;;4945752;28;20059;-76
2023/10/11 04:34:23;;;;;;;11.48;5.65;;;16.10;99.90;;;;;;4946457;28;20406;-76
2023/10/11 04:36:50;;;;;;;8.52;5.25;;;16.10;99.90;;;;;;4959078;28;20043;-76
2023/10/11 04:39:18;;;;;;;13.40;5.47;;;16.10;99.90;;;;;;4960583;28;20051;-76
2023/10/11 04:41:51;;;;;;;19.30;5.88;;;16.10;99.90;;;;;;4957363;28;20047;-76
2023/10/11 04:44:22;;;;;;;14.65;5.18;;;16.10;99.90;;;;;;4954544;28;20078;-76
2023/10/11 04:46:57;;;;;;;14.37;5.00;;;16.10;99.90;;;;;;4956266;28;20457;-76
2023/10/11 04:49:24;;;;;;;13.38;5.40;;;16.10;99.90;;;;;;4964076;28;20298;-77
2023/10/11 04:51:54;;;;;;;13.65;5.10;;;16.10;99.90;;;;;;4959321;28;20055;-77
2023/10/11 04:54:19;;;;;;;9.60;4.45;;;16.10;99.90;;;;;;4961483;28;20047;-77
2023/10/11 04:59:27;;;;;;;17.92;4.85;;;16.10;99.90;;;;;;4963935;28;20061;-78
2023/10/11 05:04:27;;;;;;;14.95;4.55;;;16.00;99.90;;;;;;4954049;28;20053;-76
2023/10/11 05:06:53;;;;;;;14.10;4.93;;;16.00;99.90;;;;;;4960537;28;20055;-75
2023/10/11 05:11:54;;;;;;;10.05;5.07;;;16.00;99.90;;;;;;4946527;28;20047;-76
2023/10/11 05:22:55;;;;;;;25.63;6.53;;;16.10;99.90;;;;;;4959170;28;20161;-75
2023/10/11 05:28:08;;;;;;;12.48;5.85;;;16.10;99.90;;;;;;4954990;28;20057;-77
2023/10/11 05:30:34;;;;;;;13.18;5.40;;;16.20;99.90;;;;;;4954736;28;20117;-75
2023/10/11 05:51:51;;;;;;;11.30;5.53;;;16.30;99.90;;;;;;4953441;28;20493;-75
2023/10/11 05:54:18;;;;;;;14.50;5.13;;;16.30;99.90;;;;;;4950783;28;20039;-75
2023/10/11 05:56:47;;;;;;;12.82;7.13;;;16.30;99.90;;;;;;4948178;28;20522;-76
2023/10/11 05:59:15;;;;;;;20.15;6.95;;;16.30;99.90;;;;;;4947512;28;20043;-76
2023/10/11 06:01:44;;;;;;;15.45;5.95;;;16.40;99.90;;;;;;4972260;28;20407;-76
2023/10/11 06:04:13;;;;;;;10.98;5.60;;;16.40;99.90;;;;;;4959344;28;20047;-76
2023/10/11 06:06:42;;;;;;;18.63;5.95;;;16.40;99.90;;;;;;4958536;28;20039;-77
2023/10/11 06:09:17;;;;;;;15.98;6.53;;;16.40;99.90;;;;;;4948188;28;20085;-75
2023/10/11 06:11:50;;;;;;;16.00;7.65;;;16.40;99.90;;;;;;4948846;28;20047;-76
2023/10/11 06:14:17;;;;;;;14.20;5.60;;;16.50;99.90;;;;;;4947423;28;20046;-76
2023/10/11 06:16:49;;;;;;;16.85;6.38;;;16.50;99.90;;;;;;4951594;28;20105;-75
2023/10/11 06:19:16;;;;;;;9.20;5.85;;;16.50;99.90;;;;;;4961213;28;20537;-76
2023/10/11 06:22:33;;;;;;;19.73;6.13;;;16.50;99.90;;;;;;4927003;28;20043;-75
2023/10/11 06:24:33;;;;;;;13.57;6.53;;;16.50;99.90;;;;;;4951770;28;20053;-75
2023/10/11 06:29:53;;;;;;;12.82;5.80;;;16.50;99.90;;;;;;4971458;28;20047;-75
2023/10/11 06:32:20;;;;;;;19.73;7.15;;;16.60;99.90;;;;;;4942833;28;20114;-74
2023/10/11 06:34:47;;;;;;;13.05;5.47;;;16.50;99.90;;;;;;4949326;28;20046;-75
2023/10/11 06:37:17;;;;;;;15.07;6.68;;;16.60;99.90;;;;;;4942887;28;20043;-75
2023/10/11 06:44:48;;;;;;;9.30;5.53;;;16.60;99.90;;;;;;4961032;28;20135;-75
2023/10/11 06:47:18;;;;;;;15.13;6.10;;;16.70;99.90;;;;;;4960200;28;20039;-75
2023/10/11 06:49:44;;;;;;;15.52;5.13;;;16.70;99.90;;;;;;4959070;28;20052;-75
2023/10/11 06:52:11;;;;;;;12.50;6.22;;;16.70;99.90;;;;;;4950756;28;20050;-75
2023/10/11 06:54:46;;;;;;;16.70;6.97;;;16.70;99.90;;;;;;4944795;28;20055;-75
2023/10/11 06:57:17;;;;;;;19.80;8.10;;;16.70;99.90;;;;;;4951522;28;20397;-76
2023/10/11 06:59:43;;;;;;;20.40;6.53;;;16.70;99.90;;;;;;4954298;28;20054;-76
2023/10/11 07:02:17;;;;;;;11.05;6.40;;;16.70;99.90;;;;;;4955477;28;20053;-78
2023/10/11 07:04:52;;;;;;;13.25;6.30;;;16.70;99.90;;;;;;4945415;28;20145;-80
2023/10/11 07:07:21;;;;;;;23.67;5.80;;;16.70;99.90;;;;;;4952376;28;20040;-75
2023/10/11 07:09:58;;;;;;;12.15;5.68;;;16.70;99.90;;;;;;4943634;28;20470;-75
2023/10/11 07:12:28;;;;;;;9.40;5.85;;;16.70;99.90;;;;;;4945599;28;20047;-76
2023/10/11 07:15:00;;;;;;;10.70;4.53;;;16.80;99.90;;;;;;4930169;29;20043;-76
2023/10/11 07:17:32;;;;;;;12.13;5.20;;;16.80;99.90;;;;;;4945549;28;20308;-75
2023/10/11 07:19:57;;;;;;;14.85;5.47;;;16.80;99.90;;;;;;4944572;28;20075;-76
2023/10/11 07:22:26;;;;;;;8.82;4.43;;;16.80;99.90;;;;;;4944993;28;20418;-76
2023/10/11 07:25:18;;;;;;;15.30;4.57;;;16.80;99.90;;;;;;4945641;28;20066;-75
2023/10/11 07:27:41;;;;;;;8.35;5.55;;;16.90;99.90;;;;;;4944781;28;20474;-77
2023/10/11 07:30:16;;;;;;;9.02;4.40;;;16.90;99.90;;;;;;4946696;28;20141;-76
2023/10/11 07:32:44;;;;;;;9.45;4.95;;;17.00;99.90;;;;;;4945287;28;20051;-76
2023/10/11 07:35:17;;;;;;;12.82;5.00;;;17.00;99.90;;;;;;4944871;28;20054;-75
2023/10/11 07:37:44;;;;;;;11.07;4.53;;;17.00;99.90;;;;;;4945021;28;20371;-76
2023/10/11 07:40:13;;;;;;;9.93;5.65;;;17.00;99.90;;;;;;4944324;28;20545;-76
2023/10/11 07:42:39;;;;;;;9.98;4.47;;;17.00;99.90;;;;;;4947100;28;20130;-77
2023/10/11 07:45:12;;;;;;;11.23;4.93;;;17.10;99.90;;;;;;4946308;29;20557;-76
2023/10/11 07:47:48;;;;;;;15.13;4.93;;;17.10;99.90;;;;;;4945576;28;20532;-74
2023/10/11 07:50:14;;;;;;;11.38;4.93;;;17.10;99.90;;;;;;4943929;28;20043;-75
2023/10/11 07:52:42;;;;;;;11.27;5.20;;;17.20;99.90;;;;;;4946193;28;20075;-76
2023/10/11 07:55:12;;;;;;;11.18;5.68;;;17.10;99.90;;;;;;4945962;29;20110;-75
2023/10/11 07:57:44;;;;;;;17.60;6.45;;;17.10;99.90;;;;;;4945339;28;20091;-76
2023/10/11 08:00:20;;;;;;;11.38;5.15;;;17.20;99.90;;;;;;4944179;28;20043;-76
2023/10/11 08:03:02;;;;;;;10.65;5.40;;;17.10;99.90;;;;;;4944718;28;20074;-76
2023/10/11 08:05:29;;;;;;;11.55;5.55;;;17.10;99.90;;;;;;4943339;28;20387;-76
2023/10/11 08:07:55;;;;;;;22.73;5.38;;;17.10;99.90;;;;;;4958332;28;20093;-75
2023/10/11 08:10:33;;;;;;;10.85;4.28;;;17.10;99.90;;;;;;4963585;28;20141;-75
2023/10/11 08:13:03;;;;;;;11.95;5.22;;;17.10;99.90;;;;;;4964317;28;20061;-75
2023/10/11 08:15:29;;;;;;;11.15;5.60;;;17.10;99.90;;;;;;4965293;28;20722;-76
2023/10/11 08:17:55;;;;;;;13.65;5.75;;;17.00;99.90;;;;;;4963422;28;20082;-74
2023/10/11 08:20:24;;;;;;;7.50;4.80;;;17.00;99.90;;;;;;4946765;28;20045;-75
2023/10/11 08:22:55;;;;;;;8.20;4.25;;;17.00;99.90;;;;;;4962848;28;20062;-76
2023/10/11 08:25:26;;;;;;;12.23;4.87;;;17.00;99.90;;;;;;4965011;28;20039;-75
2023/10/11 08:28:07;;;;;;;8.10;4.88;;;17.00;99.90;;;;;;4947627;28;20101;-75
2023/10/11 08:30:37;;;;;;;8.35;4.00;;;17.10;99.90;;;;;;4963564;28;20220;-75
2023/10/11 08:33:04;;;;;;;8.23;4.28;;;17.00;99.90;;;;;;4965132;28;20515;-76
2023/10/11 08:35:32;;;;;;;8.02;4.35;;;17.00;99.90;;;;;;4962253;28;20046;-76
2023/10/11 08:38:05;;;;;;;10.57;4.63;;;17.10;99.90;;;;;;4963472;28;20061;-76
2023/10/11 08:40:37;;;;;;;7.15;4.47;;;17.10;99.90;;;;;;4963477;28;20611;-75
2023/10/11 08:43:04;;;;;;;12.48;4.50;;;17.20;99.90;;;;;;4963460;28;20117;-75
2023/10/11 08:45:33;;;;;;;8.13;4.22;;;17.20;99.90;;;;;;4964609;28;20050;-76
2023/10/11 08:48:00;;;;;;;8.52;3.28;;;17.20;99.90;;;;;;4964861;28;20035;-75
2023/10/11 08:50:35;;;;;;;12.38;4.93;;;17.20;99.90;;;;;;4963909;28;20054;-75
2023/10/11 08:53:07;;;;;;;8.90;3.80;;;17.20;99.90;;;;;;4947413;28;20043;-75
2023/10/11 08:55:40;;;;;;;8.60;3.85;;;17.30;99.90;;;;;;4964044;28;20396;-76
2023/10/11 08:58:23;;;;;;;9.00;4.43;;;17.30;99.90;;;;;;4965203;28;20042;-76
2023/10/11 09:00:54;;;;;;;7.72;4.35;;;17.30;99.90;;;;;;4962955;28;20508;-74
2023/10/11 09:03:26;;;;;;;7.50;4.55;;;17.30;99.90;;;;;;4947925;28;20047;-73
2023/10/11 09:05:58;;;;;;;7.72;5.57;;;17.30;99.90;;;;;;4956181;28;20141;-76
2023/10/11 09:08:27;;;;;;;;;;;17.30;99.90;;;;;;4961177;28;20046;-74
2023/10/11 09:11:12;;;;;;;12.65;4.22;;;17.40;99.90;;;;;;4937926;28;19966;-75
2023/10/11 09:13:41;;;;;;;9.90;4.50;;;17.30;99.90;;;;;;4948141;28;20046;-75
2023/10/11 09:16:13;;;;;;;7.53;4.03;;;17.30;99.90;;;;;;4952685;28;20505;-75
2023/10/11 09:18:58;;;;;;;;;;;17.40;99.90;;;;;;4932165;28;20043;-76
2023/10/11 09:21:29;;;;;;;8.32;3.40;;;17.40;99.90;;;;;;4951595;28;19922;-76
2023/10/11 09:23:56;;;;;;;8.20;3.38;;;17.40;99.90;;;;;;4957791;28;20081;-77
2023/10/11 09:26:33;;;;;;;5.65;4.20;;;17.40;99.90;;;;;;4958287;28;20046;-75
2023/10/11 09:29:04;;;;;;;7.15;3.40;;;17.50;99.90;;;;;;4976373;28;20568;-76
2023/10/11 09:31:31;;;;;;;7.35;3.47;;;17.50;99.90;;;;;;4946191;28;20054;-76
2023/10/11 09:34:02;;;;;;;9.45;4.00;;;17.50;99.90;;;;;;4932937;28;20478;-76
2023/10/11 09:36:29;;;;;;;9.37;3.30;;;17.50;99.90;;;;;;4957056;28;20489;-76
2023/10/11 09:38:55;;;;;;;6.28;3.50;;;17.60;99.90;;;;;;4955537;28;20328;-76
2023/10/11 09:41:29;;;;;;;5.53;3.50;;;17.60;99.90;;;;;;4977160;28;20485;-75
2023/10/11 09:43:59;;;;;;;8.80;3.67;;;17.60;99.90;;;;;;4961008;28;20050;-75
2023/10/11 09:46:31;;;;;;;6.00;3.55;;;17.60;99.90;;;;;;4956172;28;20125;-76
2023/10/11 09:49:00;;;;;;;9.52;3.42;;;17.60;99.90;;;;;;4950617;28;20043;-75
2023/10/11 09:51:26;;;;;;;6.03;2.92;;;17.60;99.90;;;;;;4962768;28;20078;-74
2023/10/11 09:53:53;;;;;;;9.70;3.42;;;17.60;99.90;;;;;;4954154;28;20174;-75
2023/10/11 09:56:48;;;;;;;8.07;3.22;;;17.60;99.90;;;;;;4955338;28;20055;-75
2023/10/11 09:59:29;;;;;;;12.52;4.00;;;17.50;99.90;;;;;;4945749;28;20105;-74
2023/10/11 10:02:03;;;;;;;6.10;3.25;;;17.40;99.90;;;;;;4954590;28;20039;-75
2023/10/11 10:04:51;;;;;;;9.32;3.33;;;17.40;99.90;;;;;;4954890;28;20051;-75
2023/10/11 10:07:32;;;;;;;8.77;3.47;;;17.40;99.90;;;;;;4959671;28;20285;-75
2023/10/11 10:10:00;;;;;;;9.05;3.58;;;17.50;99.90;;;;;;4969311;28;20064;-76
2023/10/11 10:12:32;;;;;;;7.68;3.55;;;17.40;99.90;;;;;;4951690;28;20054;-75
2023/10/11 10:15:20;;;;;;;7.00;3.05;;;17.40;99.90;;;;;;4961694;28;20130;-75
2023/10/11 10:18:00;;;;;;;7.22;3.28;;;17.50;99.90;;;;;;4946802;28;20085;-75
2023/10/11 10:20:41;;;;;;;5.28;3.17;;;17.50;99.90;;;;;;4947267;28;20047;-74
2023/10/11 10:23:22;;;;;;;10.52;3.90;;;17.60;99.90;;;;;;4954209;28;20054;-74
2023/10/11 10:25:50;;;;;;;10.38;3.17;;;17.60;99.90;;;;;;4931855;28;20051;-76
2023/10/11 10:28:34;;;;;;;6.13;2.63;;;17.70;99.90;;;;;;4954039;28;20134;-76
2023/10/11 10:31:17;;;;;;;6.07;2.90;;;17.70;99.90;;;;;;4960587;28;20050;-79
2023/10/11 10:33:49;;;;;;;6.20;2.88;;;17.80;99.90;;;;;;4976714;28;20047;-78
2023/10/11 10:36:18;;;;;;;4.63;2.58;;;17.90;99.90;;;;;;4950572;28;20681;-78
2023/10/11 10:42:03;;;;;;;4.60;2.70;;;17.90;99.90;;;;;;4950178;28;20059;-78
2023/10/11 10:44:31;;;;;;;5.63;2.60;;;17.90;99.90;;;;;;4959870;28;20047;-76
2023/10/11 10:46:59;;;;;;;4.40;2.60;;;17.90;99.90;;;;;;4963336;28;20174;-76
2023/10/11 10:49:42;;;;;;;4.50;2.70;;;17.90;99.90;;;;;;4960778;28;20051;-77
2023/10/11 10:52:17;;;;;;;8.75;3.00;;;17.90;99.90;;;;;;4952412;28;20398;-76
2023/10/11 10:55:03;;;;;;;6.47;2.47;;;17.90;99.90;;;;;;4958236;28;20164;-76
2023/10/11 10:57:33;;;;;;;3.88;2.10;;;18.00;99.90;;;;;;4969845;28;20112;-76
2023/10/11 11:00:05;;;;;;;4.88;2.50;;;18.00;99.90;;;;;;4960654;28;20629;-76
2023/10/11 11:02:34;;;;;;;;;;;18.10;99.90;;;;;;4963061;28;20035;-76
2023/10/11 11:05:00;;;;;;;6.93;3.30;;;18.10;99.90;;;;;;4964878;28;20206;-75
2023/10/11 11:07:26;;;;;;;4.45;1.92;;;18.10;99.90;;;;;;4957887;28;20041;-79
2023/10/11 11:09:54;;;;;;;6.15;3.13;;;18.10;99.90;;;;;;4947857;28;20086;-75
2023/10/11 11:12:28;;;;;;;6.40;2.30;;;18.10;99.90;;;;;;4947391;28;20553;-75
2023/10/11 11:15:00;;;;;;;5.00;2.28;;;18.10;99.90;;;;;;4955906;28;20518;-75
2023/10/11 11:17:45;;;;;;;;;;;18.10;99.90;;;;;;4953072;28;20047;-75
2023/10/11 11:22:46;;;;;;;6.93;2.50;;;18.20;99.90;;;;;;4955348;28;20047;-75
2023/10/11 11:28:14;;;;;;;8.52;2.80;;;18.20;99.90;;;;;;4965771;28;20119;-76
2023/10/11 11:30:43;;;;;;;9.90;2.72;;;18.20;99.90;;;;;;4964826;28;20051;-77
2023/10/11 11:33:35;;;;;;;4.15;1.67;;;18.20;99.90;;;;;;4969181;28;20039;-77
2023/10/11 11:36:01;;;;;;;8.00;2.88;;;18.30;99.90;;;;;;4932312;29;20501;-76
2023/10/11 11:38:29;;;;;;;6.70;2.28;;;18.30;99.90;;;;;;4950156;28;20032;-76
2023/10/11 11:41:03;;;;;;;6.60;2.08;;;18.30;99.90;;;;;;4967954;28;20662;-77
2023/10/11 11:43:33;;;;;;;5.65;2.47;;;18.30;99.90;;;;;;4955347;28;20474;-77
2023/10/11 11:46:01;;;;;;;6.90;2.63;;;18.40;99.90;;;;;;4948305;28;20054;-77
2023/10/11 11:48:28;;;;;;;9.57;2.95;;;18.30;99.90;;;;;;4949704;28;20035;-76
2023/10/11 11:50:57;;;;;;;5.07;2.33;;;18.40;99.90;;;;;;4947817;28;20047;-76
2023/10/11 11:53:23;;;;;;;7.85;2.25;;;18.40;99.90;;;;;;4953391;28;20047;-77
2023/10/11 11:55:49;;;;;;;6.70;3.90;;;18.50;99.90;;;;;;4984652;28;20061;-76
2023/10/11 11:58:17;;;;;;;5.43;3.05;;;18.50;99.90;;;;;;4961507;28;20058;-76
2023/10/11 12:00:56;;;;;;;7.47;2.42;;;18.40;99.90;;;;;;4947821;28;20051;-77
2023/10/11 12:03:27;;;;;;;7.80;2.60;;;18.50;99.90;;;;;;4946394;28;20106;-77
2023/10/11 12:05:52;;;;;;;7.10;2.35;;;18.40;99.90;;;;;;4947852;28;20043;-77
2023/10/11 12:08:23;;;;;;;6.57;2.60;;;18.40;99.90;;;;;;4962660;28;20126;-78
2023/10/11 12:10:49;;;;;;;3.15;1.98;;;18.40;99.90;;;;;;4964758;28;20055;-75
2023/10/11 12:13:26;;;;;;;5.32;2.75;;;18.40;99.90;;;;;;4951269;28;20058;-75
2023/10/11 12:15:55;;;;;;;7.95;3.97;;;18.50;99.90;;;;;;4944572;28;20055;-76
2023/10/11 12:18:34;;;;;;;3.67;2.70;;;18.50;99.90;;;;;;4952922;28;20061;-77
2023/10/11 12:21:10;;;;;;;8.77;2.50;;;18.40;99.90;;;;;;4973155;28;20118;-76
2023/10/11 12:23:46;;;;;;;3.97;2.42;;;18.40;99.90;;;;;;4945665;28;20054;-75
2023/10/11 12:26:19;;;;;;;7.95;2.47;;;18.50;99.90;;;;;;4945412;28;20251;-76
2023/10/11 12:28:48;;;;;;;10.30;3.58;;;18.50;99.90;;;;;;4958579;28;20334;-76
2023/10/11 12:31:16;;;;;;;7.68;2.42;;;18.50;99.90;;;;;;4946833;28;20426;-76
2023/10/11 12:33:43;;;;;;;5.10;2.53;;;18.40;99.90;;;;;;4949521;28;20057;-74
2023/10/11 12:36:08;;;;;;;3.70;2.03;;;18.50;99.90;;;;;;4938737;28;20045;-77
2023/10/11 12:38:36;;;;;;;7.53;2.47;;;18.50;99.90;;;;;;4952799;28;20046;-75
2023/10/11 12:41:05;;;;;;;7.88;2.65;;;18.50;99.90;;;;;;4955652;28;20047;-76
2023/10/11 12:43:32;;;;;;;8.27;2.90;;;18.60;99.90;;;;;;4948680;28;20486;-76
2023/10/11 12:45:58;;;;;;;6.18;1.90;;;18.60;99.90;;;;;;4950680;28;20046;-76
2023/10/11 12:48:24;;;;;;;7.45;2.47;;;18.60;99.90;;;;;;4945795;28;20442;-75
2023/10/11 12:50:52;;;;;;;5.95;2.47;;;18.60;99.90;;;;;;4928450;28;20051;-76
2023/10/11 12:53:18;;;;;;;7.13;2.83;;;18.70;99.90;;;;;;4968649;28;20073;-76
2023/10/11 12:55:48;;;;;;;7.32;2.85;;;18.60;99.90;;;;;;4940806;28;20078;-75
2023/10/11 12:58:15;;;;;;;6.90;3.05;;;18.60;99.90;;;;;;4962306;28;20051;-76
2023/10/11 13:00:51;;;;;;;6.25;2.58;;;18.70;99.90;;;;;;4946270;28;20043;-75
2023/10/11 13:04:06;;;;;;;6.90;4.05;;;18.70;99.90;;;;;;4952049;28;20069;-76
2023/10/11 13:06:10;;;;;;;7.85;2.53;;;18.70;99.90;;;;;;4965401;28;20081;-75
2023/10/11 13:08:38;;;;;;;6.93;2.33;;;18.70;99.90;;;;;;4953516;28;20078;-76
2023/10/11 13:11:12;;;;;;;7.50;2.53;;;18.70;99.90;;;;;;4964034;28;20039;-75
2023/10/11 13:13:37;;;;;;;6.95;2.30;;;18.70;99.90;;;;;;4963273;28;20057;-76
2023/10/11 13:16:04;;;;;;;14.05;2.95;;;18.70;99.90;;;;;;4961863;28;20137;-76
2023/10/11 13:18:37;;;;;;;7.97;2.65;;;18.70;99.90;;;;;;4958620;28;20506;-76
2023/10/11 13:21:11;;;;;;;6.45;2.20;;;18.70;99.90;;;;;;4944867;28;20465;-76
2023/10/11 13:23:37;;;;;;;9.10;2.45;;;18.70;99.90;;;;;;4954263;28;20038;-76
2023/10/11 13:26:08;;;;;;;7.00;2.88;;;18.60;99.90;;;;;;4948593;28;20515;-76
2023/10/11 13:28:40;;;;;;;8.25;3.03;;;18.70;99.90;;;;;;4960813;28;20039;-76
2023/10/11 13:31:09;;;;;;;6.00;2.30;;;18.60;99.90;;;;;;4945486;28;20141;-76
2023/10/11 13:33:37;;;;;;;4.53;2.92;;;18.70;99.90;;;;;;4961178;28;20046;-76
2023/10/11 13:36:05;;;;;;;7.18;2.50;;;18.70;99.90;;;;;;4983092;28;20050;-76
2023/10/11 13:38:31;;;;;;;5.90;2.70;;;18.70;99.90;;;;;;4978941;28;20470;-76
2023/10/11 13:41:00;;;;;;;7.88;3.00;;;18.70;99.90;;;;;;4957870;28;20121;-76
2023/10/11 13:43:26;;;;;;;7.32;2.50;;;18.70;99.90;;;;;;4945001;28;20039;-76
2023/10/11 13:45:56;;;;;;;6.45;2.78;;;18.80;99.90;;;;;;4947729;28;20039;-77
2023/10/11 13:48:37;;;;;;;8.98;2.83;;;18.80;99.90;;;;;;4945563;28;20035;-75
2023/10/11 13:51:06;;;;;;;6.65;2.88;;;18.80;99.90;;;;;;4957910;28;20060;-76
2023/10/11 13:53:40;;;;;;;6.63;2.17;;;18.80;99.90;;;;;;4957162;28;20090;-78
2023/10/11 13:56:11;;;;;;;6.13;2.63;;;18.90;99.90;;;;;;4958510;28;20520;-76
2023/10/11 13:58:36;;;;;;;6.82;3.15;;;18.80;99.90;;;;;;4947321;28;20059;-76
2023/10/11 14:01:24;;;;;;;6.53;3.28;;;18.80;99.90;;;;;;4940879;28;20034;-78
2023/10/11 14:03:52;;;;;;;10.45;2.97;;;18.90;99.90;;;;;;4982074;28;20050;-77
2023/10/11 14:06:42;;;;;;;5.18;3.08;;;18.80;99.90;;;;;;4963007;28;20518;-77
2023/10/11 14:09:17;;;;;;;6.75;2.25;;;18.80;99.90;;;;;;4949086;28;20043;-74